sensor_id;sensor_type;location;lat;lon;timestamp;P1;durP1;ratioP1;P2;durP2;ratioP2
61702;SDS011;47622;47.726;3.298;2022-12-05T00:02:20;17.90;;;10.02;;
61702;SDS011;47622;47.726;3.298;2022-12-05T00:04:46;15.85;;;9.15;;
61702;SDS011;47622;47.726;3.298;2022-12-05T00:07:12;17.48;;;9.35;;
61702;SDS011;47622;47.726;3.298;2022-12-05T00:09:38;17.38;;;9.35;;
61702;SDS011;47622;47.726;3.298;2022-12-05T00:12:03;16.23;;;9.40;;
61702;SDS011;47622;47.726;3.298;2022-12-05T00:14:29;15.75;;;8.88;;
61702;SDS011;47622;47.726;3.298;2022-12-05T00:16:55;17.73;;;9.75;;
61702;SDS011;47622;47.726;3.298;2022-12-05T00:19:21;17.02;;;8.68;;
61702;SDS011;47622;47.726;3.298;2022-12-05T00:21:47;16.75;;;9.05;;
61702;SDS011;47622;47.726;3.298;2022-12-05T00:24:13;14.85;;;8.52;;
61702;SDS011;47622;47.726;3.298;2022-12-05T00:26:40;16.50;;;9.10;;
61702;SDS011;47622;47.726;3.298;2022-12-05T00:29:06;16.20;;;8.98;;
61702;SDS011;47622;47.726;3.298;2022-12-05T00:31:32;14.07;;;8.05;;
61702;SDS011;47622;47.726;3.298;2022-12-05T00:34:01;16.98;;;8.38;;
61702;SDS011;47622;47.726;3.298;2022-12-05T00:36:28;12.90;;;8.05;;
61702;SDS011;47622;47.726;3.298;2022-12-05T00:38:57;16.92;;;8.25;;
61702;SDS011;47622;47.726;3.298;2022-12-05T00:41:25;14.43;;;7.53;;
61702;SDS011;47622;47.726;3.298;2022-12-05T00:43:52;16.77;;;7.88;;
61702;SDS011;47622;47.726;3.298;2022-12-05T00:46:20;14.52;;;7.60;;
61702;SDS011;47622;47.726;3.298;2022-12-05T00:48:47;13.15;;;7.65;;
61702;SDS011;47622;47.726;3.298;2022-12-05T00:51:14;13.35;;;7.97;;
61702;SDS011;47622;47.726;3.298;2022-12-05T00:53:42;13.07;;;7.93;;
61702;SDS011;47622;47.726;3.298;2022-12-05T00:56:10;16.90;;;8.73;;
61702;SDS011;47622;47.726;3.298;2022-12-05T00:58:41;14.53;;;8.43;;
61702;SDS011;47622;47.726;3.298;2022-12-05T01:01:17;14.35;;;8.02;;
61702;SDS011;47622;47.726;3.298;2022-12-05T01:03:46;14.43;;;8.70;;
61702;SDS011;47622;47.726;3.298;2022-12-05T01:06:13;13.52;;;8.02;;
61702;SDS011;47622;47.726;3.298;2022-12-05T01:08:40;14.98;;;8.35;;
61702;SDS011;47622;47.726;3.298;2022-12-05T01:11:06;13.70;;;7.82;;
61702;SDS011;47622;47.726;3.298;2022-12-05T01:13:33;13.98;;;7.60;;
61702;SDS011;47622;47.726;3.298;2022-12-05T01:15:58;13.90;;;7.60;;
61702;SDS011;47622;47.726;3.298;2022-12-05T01:18:24;12.95;;;7.68;;
61702;SDS011;47622;47.726;3.298;2022-12-05T01:20:51;12.18;;;7.10;;
61702;SDS011;47622;47.726;3.298;2022-12-05T01:23:17;12.15;;;6.82;;
61702;SDS011;47622;47.726;3.298;2022-12-05T01:25:44;10.95;;;6.72;;
61702;SDS011;47622;47.726;3.298;2022-12-05T01:28:11;13.10;;;7.45;;
61702;SDS011;47622;47.726;3.298;2022-12-05T01:30:39;13.77;;;6.95;;
61702;SDS011;47622;47.726;3.298;2022-12-05T01:33:06;12.90;;;7.22;;
61702;SDS011;47622;47.726;3.298;2022-12-05T01:35:32;12.75;;;6.65;;
61702;SDS011;47622;47.726;3.298;2022-12-05T01:37:59;10.93;;;6.63;;
61702;SDS011;47622;47.726;3.298;2022-12-05T01:40:25;11.90;;;7.00;;
61702;SDS011;47622;47.726;3.298;2022-12-05T01:42:51;13.77;;;7.47;;
61702;SDS011;47622;47.726;3.298;2022-12-05T01:45:20;10.52;;;6.85;;
61702;SDS011;47622;47.726;3.298;2022-12-05T01:47:51;12.15;;;6.72;;
61702;SDS011;47622;47.726;3.298;2022-12-05T01:50:18;12.52;;;6.47;;
61702;SDS011;47622;47.726;3.298;2022-12-05T01:52:44;10.80;;;6.55;;
61702;SDS011;47622;47.726;3.298;2022-12-05T01:55:13;13.98;;;6.80;;
61702;SDS011;47622;47.726;3.298;2022-12-05T01:57:41;11.68;;;6.45;;
61702;SDS011;47622;47.726;3.298;2022-12-05T02:00:10;10.23;;;6.05;;
61702;SDS011;47622;47.726;3.298;2022-12-05T02:02:39;9.10;;;5.60;;
61702;SDS011;47622;47.726;3.298;2022-12-05T02:05:12;9.55;;;5.60;;
61702;SDS011;47622;47.726;3.298;2022-12-05T02:07:42;10.13;;;5.30;;
61702;SDS011;47622;47.726;3.298;2022-12-05T02:10:09;8.35;;;4.80;;
61702;SDS011;47622;47.726;3.298;2022-12-05T02:12:35;9.55;;;5.00;;
61702;SDS011;47622;47.726;3.298;2022-12-05T02:34:15;6.22;;;4.22;;
61702;SDS011;47622;47.726;3.298;2022-12-05T02:36:49;8.50;;;4.47;;
61702;SDS011;47622;47.726;3.298;2022-12-05T02:39:32;7.63;;;4.25;;
61702;SDS011;47622;47.726;3.298;2022-12-05T02:42:09;6.53;;;4.35;;
61702;SDS011;47622;47.726;3.298;2022-12-05T02:44:44;5.68;;;3.80;;
61702;SDS011;47622;47.726;3.298;2022-12-05T02:47:14;7.50;;;4.68;;
61702;SDS011;47622;47.726;3.298;2022-12-05T02:49:43;8.77;;;4.32;;
61702;SDS011;47622;47.726;3.298;2022-12-05T02:52:10;7.43;;;4.15;;
61702;SDS011;47622;47.726;3.298;2022-12-05T02:54:39;6.95;;;3.97;;
61702;SDS011;47622;47.726;3.298;2022-12-05T02:57:07;8.05;;;4.70;;
61702;SDS011;47622;47.726;3.298;2022-12-05T02:59:35;9.20;;;4.75;;
61702;SDS011;47622;47.726;3.298;2022-12-05T03:02:01;8.20;;;4.85;;
61702;SDS011;47622;47.726;3.298;2022-12-05T03:04:27;8.27;;;4.57;;
61702;SDS011;47622;47.726;3.298;2022-12-05T03:09:42;9.32;;;5.30;;
61702;SDS011;47622;47.726;3.298;2022-12-05T03:12:17;9.52;;;4.95;;
61702;SDS011;47622;47.726;3.298;2022-12-05T03:14:49;9.70;;;5.15;;
61702;SDS011;47622;47.726;3.298;2022-12-05T03:17:25;9.20;;;5.30;;
61702;SDS011;47622;47.726;3.298;2022-12-05T03:20:20;10.27;;;4.68;;
61702;SDS011;47622;47.726;3.298;2022-12-05T03:25:39;6.18;;;4.43;;
61702;SDS011;47622;47.726;3.298;2022-12-05T03:30:57;9.05;;;4.57;;
61702;SDS011;47622;47.726;3.298;2022-12-05T03:33:27;6.85;;;4.20;;
61702;SDS011;47622;47.726;3.298;2022-12-05T03:36:08;6.57;;;3.60;;
61702;SDS011;47622;47.726;3.298;2022-12-05T03:41:33;6.65;;;4.13;;
61702;SDS011;47622;47.726;3.298;2022-12-05T03:44:13;5.93;;;3.92;;
61702;SDS011;47622;47.726;3.298;2022-12-05T03:46:54;8.88;;;4.00;;
61702;SDS011;47622;47.726;3.298;2022-12-05T03:49:44;7.25;;;4.03;;
61702;SDS011;47622;47.726;3.298;2022-12-05T03:52:19;6.90;;;3.40;;
61702;SDS011;47622;47.726;3.298;2022-12-05T03:57:21;5.63;;;3.78;;
61702;SDS011;47622;47.726;3.298;2022-12-05T03:59:58;6.18;;;4.25;;
61702;SDS011;47622;47.726;3.298;2022-12-05T04:02:44;7.70;;;3.75;;
61702;SDS011;47622;47.726;3.298;2022-12-05T04:07:45;6.60;;;4.35;;
61702;SDS011;47622;47.726;3.298;2022-12-05T04:10:25;5.75;;;3.88;;
61702;SDS011;47622;47.726;3.298;2022-12-05T04:12:54;6.85;;;4.35;;
61702;SDS011;47622;47.726;3.298;2022-12-05T04:15:24;4.72;;;3.70;;
61702;SDS011;47622;47.726;3.298;2022-12-05T04:18:13;7.85;;;4.25;;
61702;SDS011;47622;47.726;3.298;2022-12-05T04:20:44;7.68;;;3.90;;
61702;SDS011;47622;47.726;3.298;2022-12-05T04:23:30;5.82;;;3.90;;
61702;SDS011;47622;47.726;3.298;2022-12-05T04:26:08;5.63;;;4.15;;
61702;SDS011;47622;47.726;3.298;2022-12-05T04:28:48;5.57;;;3.63;;
61702;SDS011;47622;47.726;3.298;2022-12-05T04:31:32;5.25;;;3.70;;
61702;SDS011;47622;47.726;3.298;2022-12-05T04:34:04;7.03;;;3.67;;
61702;SDS011;47622;47.726;3.298;2022-12-05T04:36:39;5.53;;;3.92;;
61702;SDS011;47622;47.726;3.298;2022-12-05T04:42:11;5.53;;;3.50;;
61702;SDS011;47622;47.726;3.298;2022-12-05T04:44:51;5.03;;;3.78;;
61702;SDS011;47622;47.726;3.298;2022-12-05T04:47:18;5.80;;;3.97;;
61702;SDS011;47622;47.726;3.298;2022-12-05T04:49:48;5.03;;;3.50;;
61702;SDS011;47622;47.726;3.298;2022-12-05T04:52:14;4.82;;;3.70;;
61702;SDS011;47622;47.726;3.298;2022-12-05T04:54:45;4.97;;;3.50;;
61702;SDS011;47622;47.726;3.298;2022-12-05T04:57:16;7.85;;;3.75;;
61702;SDS011;47622;47.726;3.298;2022-12-05T04:59:46;5.35;;;3.58;;
61702;SDS011;47622;47.726;3.298;2022-12-05T05:02:14;6.72;;;3.88;;
61702;SDS011;47622;47.726;3.298;2022-12-05T05:04:44;5.68;;;4.30;;
61702;SDS011;47622;47.726;3.298;2022-12-05T05:07:12;6.03;;;3.78;;
61702;SDS011;47622;47.726;3.298;2022-12-05T05:09:39;5.50;;;3.90;;
61702;SDS011;47622;47.726;3.298;2022-12-05T05:12:05;10.27;;;4.65;;
61702;SDS011;47622;47.726;3.298;2022-12-05T05:14:32;7.78;;;4.50;;
61702;SDS011;47622;47.726;3.298;2022-12-05T05:16:58;7.72;;;4.60;;
61702;SDS011;47622;47.726;3.298;2022-12-05T05:19:23;6.35;;;4.35;;
61702;SDS011;47622;47.726;3.298;2022-12-05T05:21:49;6.85;;;4.63;;
61702;SDS011;47622;47.726;3.298;2022-12-05T05:24:15;8.85;;;5.40;;
61702;SDS011;47622;47.726;3.298;2022-12-05T05:26:43;8.27;;;4.88;;
61702;SDS011;47622;47.726;3.298;2022-12-05T05:29:10;9.27;;;5.72;;
61702;SDS011;47622;47.726;3.298;2022-12-05T05:31:36;9.00;;;5.50;;
61702;SDS011;47622;47.726;3.298;2022-12-05T05:34:03;10.00;;;5.60;;
61702;SDS011;47622;47.726;3.298;2022-12-05T05:36:29;9.27;;;5.78;;
61702;SDS011;47622;47.726;3.298;2022-12-05T05:38:56;11.68;;;7.05;;
61702;SDS011;47622;47.726;3.298;2022-12-05T05:41:28;10.95;;;6.65;;
61702;SDS011;47622;47.726;3.298;2022-12-05T05:43:56;12.87;;;7.10;;
61702;SDS011;47622;47.726;3.298;2022-12-05T05:46:24;13.00;;;7.28;;
61702;SDS011;47622;47.726;3.298;2022-12-05T05:48:51;13.90;;;7.93;;
61702;SDS011;47622;47.726;3.298;2022-12-05T05:51:17;13.50;;;7.65;;
61702;SDS011;47622;47.726;3.298;2022-12-05T05:53:44;12.85;;;7.80;;
61702;SDS011;47622;47.726;3.298;2022-12-05T05:56:14;15.38;;;8.43;;
61702;SDS011;47622;47.726;3.298;2022-12-05T05:58:41;18.80;;;9.55;;
61702;SDS011;47622;47.726;3.298;2022-12-05T06:01:10;17.85;;;8.90;;
61702;SDS011;47622;47.726;3.298;2022-12-05T06:03:37;19.02;;;9.40;;
61702;SDS011;47622;47.726;3.298;2022-12-05T06:06:05;17.23;;;9.50;;
61702;SDS011;47622;47.726;3.298;2022-12-05T06:08:33;16.25;;;9.27;;
61702;SDS011;47622;47.726;3.298;2022-12-05T06:11:05;18.80;;;9.52;;
61702;SDS011;47622;47.726;3.298;2022-12-05T06:13:32;19.35;;;10.30;;
61702;SDS011;47622;47.726;3.298;2022-12-05T06:15:58;18.35;;;10.10;;
61702;SDS011;47622;47.726;3.298;2022-12-05T06:18:23;21.10;;;10.60;;
61702;SDS011;47622;47.726;3.298;2022-12-05T06:20:53;20.17;;;10.80;;
61702;SDS011;47622;47.726;3.298;2022-12-05T06:23:20;23.83;;;11.43;;
61702;SDS011;47622;47.726;3.298;2022-12-05T06:25:49;18.08;;;9.88;;
61702;SDS011;47622;47.726;3.298;2022-12-05T06:28:18;20.00;;;10.45;;
61702;SDS011;47622;47.726;3.298;2022-12-05T06:30:45;24.58;;;11.75;;
61702;SDS011;47622;47.726;3.298;2022-12-05T06:33:11;17.95;;;10.32;;
61702;SDS011;47622;47.726;3.298;2022-12-05T06:35:37;26.25;;;11.13;;
61702;SDS011;47622;47.726;3.298;2022-12-05T06:38:03;23.70;;;11.30;;
61702;SDS011;47622;47.726;3.298;2022-12-05T06:40:29;21.45;;;11.68;;
61702;SDS011;47622;47.726;3.298;2022-12-05T06:42:55;25.30;;;11.75;;
61702;SDS011;47622;47.726;3.298;2022-12-05T06:45:21;22.50;;;10.82;;
61702;SDS011;47622;47.726;3.298;2022-12-05T06:47:46;22.67;;;10.93;;
61702;SDS011;47622;47.726;3.298;2022-12-05T06:50:12;24.60;;;11.40;;
61702;SDS011;47622;47.726;3.298;2022-12-05T06:52:38;22.30;;;10.88;;
61702;SDS011;47622;47.726;3.298;2022-12-05T06:55:03;20.27;;;10.57;;
61702;SDS011;47622;47.726;3.298;2022-12-05T06:57:29;22.00;;;11.10;;
61702;SDS011;47622;47.726;3.298;2022-12-05T06:59:55;21.88;;;10.85;;
61702;SDS011;47622;47.726;3.298;2022-12-05T07:02:40;25.33;;;11.68;;
61702;SDS011;47622;47.726;3.298;2022-12-05T07:05:06;21.25;;;10.88;;
61702;SDS011;47622;47.726;3.298;2022-12-05T07:07:35;22.45;;;11.10;;
61702;SDS011;47622;47.726;3.298;2022-12-05T07:10:02;23.20;;;10.73;;
61702;SDS011;47622;47.726;3.298;2022-12-05T07:12:31;25.83;;;11.95;;
61702;SDS011;47622;47.726;3.298;2022-12-05T07:14:57;23.70;;;11.30;;
61702;SDS011;47622;47.726;3.298;2022-12-05T07:17:22;26.85;;;11.98;;
61702;SDS011;47622;47.726;3.298;2022-12-05T07:19:49;29.33;;;11.90;;
61702;SDS011;47622;47.726;3.298;2022-12-05T07:22:17;25.88;;;11.30;;
61702;SDS011;47622;47.726;3.298;2022-12-05T07:24:44;23.17;;;10.30;;
61702;SDS011;47622;47.726;3.298;2022-12-05T07:27:10;24.95;;;11.45;;
61702;SDS011;47622;47.726;3.298;2022-12-05T07:29:36;27.45;;;11.00;;
61702;SDS011;47622;47.726;3.298;2022-12-05T07:32:02;23.83;;;11.32;;
61702;SDS011;47622;47.726;3.298;2022-12-05T07:34:28;24.45;;;11.40;;
61702;SDS011;47622;47.726;3.298;2022-12-05T07:36:53;23.52;;;10.02;;
61702;SDS011;47622;47.726;3.298;2022-12-05T07:39:19;20.98;;;9.90;;
61702;SDS011;47622;47.726;3.298;2022-12-05T07:41:45;24.73;;;10.40;;
61702;SDS011;47622;47.726;3.298;2022-12-05T07:44:10;20.38;;;10.43;;
61702;SDS011;47622;47.726;3.298;2022-12-05T07:46:37;24.33;;;10.95;;
61702;SDS011;47622;47.726;3.298;2022-12-05T07:49:03;19.80;;;9.98;;
61702;SDS011;47622;47.726;3.298;2022-12-05T07:51:29;28.48;;;11.35;;
61702;SDS011;47622;47.726;3.298;2022-12-05T07:53:55;23.52;;;10.27;;
61702;SDS011;47622;47.726;3.298;2022-12-05T07:56:22;23.70;;;10.63;;
61702;SDS011;47622;47.726;3.298;2022-12-05T07:58:48;17.58;;;8.85;;
61702;SDS011;47622;47.726;3.298;2022-12-05T08:03:42;22.05;;;10.23;;
61702;SDS011;47622;47.726;3.298;2022-12-05T08:06:15;21.98;;;9.95;;
61702;SDS011;47622;47.726;3.298;2022-12-05T08:08:43;18.95;;;10.10;;
61702;SDS011;47622;47.726;3.298;2022-12-05T08:11:11;20.13;;;10.18;;
61702;SDS011;47622;47.726;3.298;2022-12-05T08:13:38;17.27;;;9.40;;
61702;SDS011;47622;47.726;3.298;2022-12-05T08:16:06;20.77;;;9.57;;
61702;SDS011;47622;47.726;3.298;2022-12-05T08:18:38;18.95;;;10.07;;
61702;SDS011;47622;47.726;3.298;2022-12-05T08:21:08;21.55;;;9.20;;
61702;SDS011;47622;47.726;3.298;2022-12-05T08:23:37;18.35;;;9.15;;
61702;SDS011;47622;47.726;3.298;2022-12-05T08:26:03;17.65;;;8.55;;
61702;SDS011;47622;47.726;3.298;2022-12-05T08:28:31;16.85;;;9.18;;
61702;SDS011;47622;47.726;3.298;2022-12-05T08:31:04;19.17;;;9.63;;
61702;SDS011;47622;47.726;3.298;2022-12-05T08:33:31;19.42;;;9.02;;
61702;SDS011;47622;47.726;3.298;2022-12-05T08:35:59;21.67;;;10.40;;
61702;SDS011;47622;47.726;3.298;2022-12-05T08:38:26;22.10;;;9.55;;
61702;SDS011;47622;47.726;3.298;2022-12-05T08:40:53;27.88;;;11.40;;
61702;SDS011;47622;47.726;3.298;2022-12-05T08:43:19;25.63;;;11.63;;
61702;SDS011;47622;47.726;3.298;2022-12-05T08:45:51;22.02;;;10.32;;
61702;SDS011;47622;47.726;3.298;2022-12-05T08:48:17;22.63;;;10.65;;
61702;SDS011;47622;47.726;3.298;2022-12-05T08:50:43;21.80;;;10.45;;
61702;SDS011;47622;47.726;3.298;2022-12-05T08:53:09;20.88;;;10.45;;
61702;SDS011;47622;47.726;3.298;2022-12-05T08:55:34;24.10;;;11.07;;
61702;SDS011;47622;47.726;3.298;2022-12-05T08:58:00;20.10;;;9.70;;
61702;SDS011;47622;47.726;3.298;2022-12-05T09:00:26;19.75;;;9.90;;
61702;SDS011;47622;47.726;3.298;2022-12-05T09:02:51;19.65;;;9.23;;
61702;SDS011;47622;47.726;3.298;2022-12-05T09:05:17;23.58;;;10.38;;
61702;SDS011;47622;47.726;3.298;2022-12-05T09:07:43;22.02;;;9.23;;
61702;SDS011;47622;47.726;3.298;2022-12-05T09:10:08;20.10;;;10.10;;
61702;SDS011;47622;47.726;3.298;2022-12-05T09:12:35;27.02;;;10.95;;
61702;SDS011;47622;47.726;3.298;2022-12-05T09:15:02;21.38;;;9.82;;
61702;SDS011;47622;47.726;3.298;2022-12-05T09:17:30;21.77;;;10.57;;
61702;SDS011;47622;47.726;3.298;2022-12-05T09:19:56;15.63;;;8.40;;
61702;SDS011;47622;47.726;3.298;2022-12-05T09:22:21;18.58;;;9.10;;
61702;SDS011;47622;47.726;3.298;2022-12-05T09:24:47;20.35;;;9.80;;
61702;SDS011;47622;47.726;3.298;2022-12-05T09:27:13;18.80;;;8.95;;
61702;SDS011;47622;47.726;3.298;2022-12-05T09:29:39;17.70;;;8.93;;
61702;SDS011;47622;47.726;3.298;2022-12-05T09:32:04;22.20;;;9.85;;
61702;SDS011;47622;47.726;3.298;2022-12-05T09:34:30;20.25;;;9.05;;
61702;SDS011;47622;47.726;3.298;2022-12-05T09:36:56;19.15;;;9.02;;
61702;SDS011;47622;47.726;3.298;2022-12-05T09:39:22;19.48;;;8.75;;
61702;SDS011;47622;47.726;3.298;2022-12-05T09:49:52;21.85;;;9.30;;
61702;SDS011;47622;47.726;3.298;2022-12-05T09:52:30;24.50;;;10.45;;
61702;SDS011;47622;47.726;3.298;2022-12-05T09:55:34;21.88;;;10.38;;
61702;SDS011;47622;47.726;3.298;2022-12-05T09:57:55;24.02;;;10.00;;
61702;SDS011;47622;47.726;3.298;2022-12-05T10:00:23;25.80;;;11.02;;
61702;SDS011;47622;47.726;3.298;2022-12-05T10:03:09;24.23;;;11.93;;
61702;SDS011;47622;47.726;3.298;2022-12-05T10:05:58;24.10;;;10.30;;
61702;SDS011;47622;47.726;3.298;2022-12-05T10:08:46;22.10;;;10.75;;
61702;SDS011;47622;47.726;3.298;2022-12-05T10:11:26;22.83;;;10.80;;
61702;SDS011;47622;47.726;3.298;2022-12-05T10:14:04;25.83;;;12.07;;
61702;SDS011;47622;47.726;3.298;2022-12-05T10:16:44;26.58;;;11.25;;
61702;SDS011;47622;47.726;3.298;2022-12-05T10:22:17;21.55;;;10.15;;
61702;SDS011;47622;47.726;3.298;2022-12-05T10:24:59;27.80;;;11.27;;
61702;SDS011;47622;47.726;3.298;2022-12-05T10:27:37;31.38;;;13.13;;
61702;SDS011;47622;47.726;3.298;2022-12-05T10:30:24;23.50;;;9.85;;
61702;SDS011;47622;47.726;3.298;2022-12-05T10:32:54;24.08;;;10.00;;
61702;SDS011;47622;47.726;3.298;2022-12-05T10:35:22;24.63;;;10.48;;
61702;SDS011;47622;47.726;3.298;2022-12-05T10:37:59;18.92;;;9.27;;
61702;SDS011;47622;47.726;3.298;2022-12-05T10:40:48;24.10;;;10.05;;
61702;SDS011;47622;47.726;3.298;2022-12-05T10:43:22;21.40;;;10.18;;
61702;SDS011;47622;47.726;3.298;2022-12-05T10:45:50;20.58;;;9.68;;
61702;SDS011;47622;47.726;3.298;2022-12-05T10:48:17;22.33;;;10.98;;
61702;SDS011;47622;47.726;3.298;2022-12-05T10:50:45;21.65;;;9.93;;
61702;SDS011;47622;47.726;3.298;2022-12-05T10:53:14;19.30;;;9.10;;
61702;SDS011;47622;47.726;3.298;2022-12-05T10:55:45;19.45;;;9.30;;
61702;SDS011;47622;47.726;3.298;2022-12-05T10:58:19;18.17;;;9.90;;
61702;SDS011;47622;47.726;3.298;2022-12-05T11:01:09;18.63;;;9.20;;
61702;SDS011;47622;47.726;3.298;2022-12-05T11:03:40;21.77;;;10.65;;
61702;SDS011;47622;47.726;3.298;2022-12-05T11:06:17;18.05;;;10.02;;
61702;SDS011;47622;47.726;3.298;2022-12-05T11:08:55;22.27;;;10.65;;
61702;SDS011;47622;47.726;3.298;2022-12-05T11:11:26;21.30;;;9.90;;
61702;SDS011;47622;47.726;3.298;2022-12-05T11:13:55;19.58;;;9.43;;
61702;SDS011;47622;47.726;3.298;2022-12-05T11:16:25;20.42;;;9.27;;
61702;SDS011;47622;47.726;3.298;2022-12-05T11:18:53;23.38;;;9.73;;
61702;SDS011;47622;47.726;3.298;2022-12-05T11:21:19;22.73;;;10.43;;
61702;SDS011;47622;47.726;3.298;2022-12-05T11:23:45;22.63;;;10.38;;
61702;SDS011;47622;47.726;3.298;2022-12-05T11:26:31;22.13;;;10.48;;
61702;SDS011;47622;47.726;3.298;2022-12-05T11:29:02;22.65;;;11.13;;
61702;SDS011;47622;47.726;3.298;2022-12-05T11:31:50;24.17;;;12.18;;
61702;SDS011;47622;47.726;3.298;2022-12-05T11:34:19;33.50;;;14.27;;
61702;SDS011;47622;47.726;3.298;2022-12-05T11:36:51;40.63;;;16.90;;
61702;SDS011;47622;47.726;3.298;2022-12-05T11:39:20;38.88;;;17.10;;
61702;SDS011;47622;47.726;3.298;2022-12-05T11:44:47;36.38;;;15.63;;
61702;SDS011;47622;47.726;3.298;2022-12-05T11:52:54;37.35;;;17.00;;
61702;SDS011;47622;47.726;3.298;2022-12-05T11:55:50;41.50;;;16.58;;
61702;SDS011;47622;47.726;3.298;2022-12-05T12:04:14;36.83;;;15.48;;
61702;SDS011;47622;47.726;3.298;2022-12-05T12:07:01;37.13;;;15.10;;
61702;SDS011;47622;47.726;3.298;2022-12-05T12:12:52;44.50;;;16.65;;
61702;SDS011;47622;47.726;3.298;2022-12-05T12:25:07;37.92;;;14.93;;
61702;SDS011;47622;47.726;3.298;2022-12-05T12:35:30;37.30;;;15.88;;
61702;SDS011;47622;47.726;3.298;2022-12-05T12:51:28;43.72;;;19.00;;
61702;SDS011;47622;47.726;3.298;2022-12-05T13:05:22;37.15;;;16.50;;
61702;SDS011;47622;47.726;3.298;2022-12-05T13:07:58;41.78;;;17.08;;
61702;SDS011;47622;47.726;3.298;2022-12-05T13:10:31;38.42;;;17.08;;
61702;SDS011;47622;47.726;3.298;2022-12-05T13:13:00;45.67;;;17.65;;
61702;SDS011;47622;47.726;3.298;2022-12-05T13:15:35;37.05;;;16.35;;
61702;SDS011;47622;47.726;3.298;2022-12-05T13:18:05;32.70;;;15.18;;
61702;SDS011;47622;47.726;3.298;2022-12-05T13:20:36;37.20;;;17.75;;
61702;SDS011;47622;47.726;3.298;2022-12-05T13:23:04;36.58;;;16.05;;
61702;SDS011;47622;47.726;3.298;2022-12-05T13:25:33;40.55;;;16.30;;
61702;SDS011;47622;47.726;3.298;2022-12-05T13:28:05;36.88;;;15.50;;
61702;SDS011;47622;47.726;3.298;2022-12-05T13:30:47;34.47;;;15.45;;
61702;SDS011;47622;47.726;3.298;2022-12-05T13:33:23;36.85;;;16.45;;
61702;SDS011;47622;47.726;3.298;2022-12-05T13:35:55;36.50;;;16.77;;
61702;SDS011;47622;47.726;3.298;2022-12-05T13:38:45;31.95;;;15.20;;
61702;SDS011;47622;47.726;3.298;2022-12-05T13:41:40;33.55;;;15.57;;
61702;SDS011;47622;47.726;3.298;2022-12-05T13:44:52;34.47;;;14.73;;
61702;SDS011;47622;47.726;3.298;2022-12-05T13:53:05;34.92;;;15.15;;
61702;SDS011;47622;47.726;3.298;2022-12-05T13:56:03;28.10;;;13.98;;
61702;SDS011;47622;47.726;3.298;2022-12-05T13:58:49;33.08;;;14.00;;
61702;SDS011;47622;47.726;3.298;2022-12-05T14:17:23;30.85;;;13.90;;
61702;SDS011;47622;47.726;3.298;2022-12-05T14:22:24;31.10;;;14.80;;
61702;SDS011;47622;47.726;3.298;2022-12-05T14:36:56;27.67;;;13.50;;
61702;SDS011;47622;47.726;3.298;2022-12-05T14:39:29;27.98;;;12.82;;
61702;SDS011;47622;47.726;3.298;2022-12-05T14:41:58;34.67;;;15.90;;
61702;SDS011;47622;47.726;3.298;2022-12-05T14:44:25;28.98;;;14.60;;
61702;SDS011;47622;47.726;3.298;2022-12-05T14:46:57;33.60;;;16.23;;
61702;SDS011;47622;47.726;3.298;2022-12-05T14:49:32;39.15;;;16.52;;
61702;SDS011;47622;47.726;3.298;2022-12-05T14:51:59;32.28;;;15.40;;
61702;SDS011;47622;47.726;3.298;2022-12-05T14:54:34;34.97;;;16.05;;
61702;SDS011;47622;47.726;3.298;2022-12-05T14:57:02;30.08;;;15.75;;
61702;SDS011;47622;47.726;3.298;2022-12-05T14:59:58;32.38;;;16.52;;
61702;SDS011;47622;47.726;3.298;2022-12-05T15:02:31;33.58;;;16.70;;
61702;SDS011;47622;47.726;3.298;2022-12-05T15:07:42;32.08;;;14.95;;
61702;SDS011;47622;47.726;3.298;2022-12-05T15:12:37;32.40;;;14.45;;
61702;SDS011;47622;47.726;3.298;2022-12-05T15:15:10;30.65;;;14.43;;
61702;SDS011;47622;47.726;3.298;2022-12-05T15:17:45;30.23;;;13.98;;
61702;SDS011;47622;47.726;3.298;2022-12-05T15:22:51;28.27;;;14.45;;
61702;SDS011;47622;47.726;3.298;2022-12-05T15:25:26;34.22;;;15.00;;
61702;SDS011;47622;47.726;3.298;2022-12-05T15:28:05;34.33;;;14.95;;
61702;SDS011;47622;47.726;3.298;2022-12-05T15:30:41;27.58;;;13.18;;
61702;SDS011;47622;47.726;3.298;2022-12-05T15:33:10;28.58;;;13.63;;
61702;SDS011;47622;47.726;3.298;2022-12-05T15:35:37;33.83;;;16.40;;
61702;SDS011;47622;47.726;3.298;2022-12-05T15:38:07;33.72;;;15.40;;
61702;SDS011;47622;47.726;3.298;2022-12-05T15:40:48;31.05;;;15.85;;
61702;SDS011;47622;47.726;3.298;2022-12-05T15:43:28;33.05;;;15.55;;
61702;SDS011;47622;47.726;3.298;2022-12-05T15:46:16;34.47;;;15.68;;
61702;SDS011;47622;47.726;3.298;2022-12-05T15:48:49;38.90;;;16.42;;
61702;SDS011;47622;47.726;3.298;2022-12-05T15:51:16;34.53;;;16.23;;
61702;SDS011;47622;47.726;3.298;2022-12-05T15:53:59;37.95;;;16.95;;
61702;SDS011;47622;47.726;3.298;2022-12-05T15:56:37;38.53;;;15.95;;
61702;SDS011;47622;47.726;3.298;2022-12-05T16:01:42;33.42;;;15.80;;
61702;SDS011;47622;47.726;3.298;2022-12-05T16:04:13;35.05;;;15.65;;
61702;SDS011;47622;47.726;3.298;2022-12-05T16:06:49;33.22;;;15.88;;
61702;SDS011;47622;47.726;3.298;2022-12-05T16:09:21;31.27;;;14.40;;
61702;SDS011;47622;47.726;3.298;2022-12-05T16:11:51;36.78;;;15.77;;
61702;SDS011;47622;47.726;3.298;2022-12-05T16:14:17;32.22;;;15.70;;
61702;SDS011;47622;47.726;3.298;2022-12-05T16:16:44;33.35;;;15.40;;
61702;SDS011;47622;47.726;3.298;2022-12-05T16:19:14;39.75;;;16.45;;
61702;SDS011;47622;47.726;3.298;2022-12-05T16:21:45;31.48;;;15.48;;
61702;SDS011;47622;47.726;3.298;2022-12-05T16:24:27;31.92;;;16.42;;
61702;SDS011;47622;47.726;3.298;2022-12-05T16:29:31;34.45;;;15.88;;
61702;SDS011;47622;47.726;3.298;2022-12-05T16:32:03;32.30;;;15.07;;
61702;SDS011;47622;47.726;3.298;2022-12-05T16:34:41;32.97;;;16.23;;
61702;SDS011;47622;47.726;3.298;2022-12-05T16:37:14;38.72;;;17.48;;
61702;SDS011;47622;47.726;3.298;2022-12-05T16:39:43;31.27;;;16.85;;
61702;SDS011;47622;47.726;3.298;2022-12-05T16:42:26;35.45;;;17.08;;
61702;SDS011;47622;47.726;3.298;2022-12-05T16:44:57;35.92;;;18.70;;
61702;SDS011;47622;47.726;3.298;2022-12-05T16:50:27;33.28;;;16.92;;
61702;SDS011;47622;47.726;3.298;2022-12-05T16:53:09;32.30;;;16.38;;
61702;SDS011;47622;47.726;3.298;2022-12-05T16:55:40;39.22;;;16.38;;
61702;SDS011;47622;47.726;3.298;2022-12-05T16:58:12;31.08;;;16.42;;
61702;SDS011;47622;47.726;3.298;2022-12-05T17:00:43;33.85;;;16.88;;
61702;SDS011;47622;47.726;3.298;2022-12-05T17:03:12;34.33;;;15.95;;
61702;SDS011;47622;47.726;3.298;2022-12-05T17:05:38;31.35;;;16.45;;
61702;SDS011;47622;47.726;3.298;2022-12-05T17:08:04;37.53;;;19.23;;
61702;SDS011;47622;47.726;3.298;2022-12-05T17:10:30;36.08;;;18.75;;
61702;SDS011;47622;47.726;3.298;2022-12-05T17:12:56;38.35;;;19.05;;
61702;SDS011;47622;47.726;3.298;2022-12-05T17:15:24;37.20;;;18.80;;
61702;SDS011;47622;47.726;3.298;2022-12-05T17:17:49;32.85;;;16.85;;
61702;SDS011;47622;47.726;3.298;2022-12-05T17:20:15;37.63;;;19.17;;
61702;SDS011;47622;47.726;3.298;2022-12-05T17:22:41;32.70;;;17.65;;
61702;SDS011;47622;47.726;3.298;2022-12-05T17:25:29;40.97;;;18.73;;
61702;SDS011;47622;47.726;3.298;2022-12-05T17:30:25;40.42;;;18.75;;
61702;SDS011;47622;47.726;3.298;2022-12-05T17:32:51;44.45;;;18.05;;
61702;SDS011;47622;47.726;3.298;2022-12-05T17:35:17;36.45;;;18.15;;
61702;SDS011;47622;47.726;3.298;2022-12-05T17:37:45;49.42;;;22.95;;
61702;SDS011;47622;47.726;3.298;2022-12-05T17:40:11;38.50;;;19.67;;